createdAt,value
2022-12-18T00:01:33.035Z,28.23
2022-12-18T00:04:02.060Z,24.17
2022-12-18T00:06:31.346Z,31.03
2022-12-18T00:09:00.551Z,27.77
2022-12-18T00:11:30.609Z,26.03
2022-12-18T00:14:00.587Z,27.00
2022-12-18T00:16:31.221Z,32.00
2022-12-18T00:19:01.037Z,27.57
2022-12-18T00:21:30.333Z,30.60
2022-12-18T00:23:58.752Z,27.40
2022-12-18T00:26:28.423Z,27.33
2022-12-18T00:28:57.599Z,28.40
2022-12-18T00:31:27.064Z,23.43
2022-12-18T00:33:57.681Z,25.13
2022-12-18T00:36:28.069Z,26.30
2022-12-18T00:38:57.449Z,27.30
2022-12-18T00:41:43.764Z,24.87
2022-12-18T00:44:13.513Z,23.40
2022-12-18T00:46:41.847Z,28.33
2022-12-18T00:49:11.883Z,27.07
2022-12-18T00:51:39.853Z,25.63
2022-12-18T00:54:07.989Z,20.70
2022-12-18T00:56:45.734Z,28.30
2022-12-18T00:59:17.262Z,23.80
2022-12-18T01:01:45.763Z,22.33
2022-12-18T01:04:15.831Z,25.07
2022-12-18T01:06:43.740Z,24.00
2022-12-18T01:09:12.724Z,23.30
2022-12-18T01:11:41.319Z,25.00
2022-12-18T01:14:09.242Z,22.87
2022-12-18T01:16:37.196Z,26.13
2022-12-18T01:19:05.096Z,25.80
2022-12-18T01:21:34.552Z,25.40
2022-12-18T01:24:03.278Z,26.87
2022-12-18T01:26:31.555Z,23.17
2022-12-18T01:28:59.776Z,25.50
2022-12-18T01:31:29.479Z,22.50
2022-12-18T01:33:58.178Z,22.90
2022-12-18T01:36:28.485Z,23.10
2022-12-18T01:38:58.980Z,23.33
2022-12-18T01:41:48.896Z,22.43
2022-12-18T01:44:55.621Z,21.50
2022-12-18T01:47:27.633Z,21.60
2022-12-18T01:49:56.525Z,22.07
2022-12-18T01:52:27.536Z,21.67
2022-12-18T01:54:57.661Z,21.70
2022-12-18T01:57:26.925Z,20.90
2022-12-18T01:59:57.927Z,22.33
2022-12-18T02:02:25.886Z,20.40
2022-12-18T02:04:53.767Z,21.20
2022-12-18T02:07:31.070Z,25.40
2022-12-18T02:10:05.808Z,22.67
2022-12-18T02:12:44.456Z,21.20
2022-12-18T02:15:18.518Z,21.83
2022-12-18T02:17:52.168Z,22.13
2022-12-18T02:20:25.149Z,21.77
2022-12-18T02:23:07.815Z,21.27
2022-12-18T02:25:48.390Z,19.20
2022-12-18T02:28:21.917Z,21.73
2022-12-18T02:30:51.799Z,19.10
2022-12-18T02:33:22.157Z,19.00
2022-12-18T02:35:52.286Z,22.53
2022-12-18T02:38:20.351Z,20.90
2022-12-18T02:40:48.914Z,21.80
2022-12-18T02:43:18.458Z,21.87
2022-12-18T02:45:52.459Z,23.47
2022-12-18T02:48:24.765Z,25.07
2022-12-18T02:51:01.666Z,21.10
2022-12-18T02:53:38.356Z,16.30
2022-12-18T02:56:11.113Z,17.20
2022-12-18T02:58:48.097Z,19.60
2022-12-18T03:01:23.967Z,19.07
2022-12-18T03:03:58.481Z,19.57
